sensor_id;sensor_type;location;lat;lon;timestamp;P1;durP1;ratioP1;P2;durP2;ratioP2
68072;SDS011;54862;51.502;7.446;2022-11-21T00:00:39;28.05;;;11.85;;
68072;SDS011;54862;51.502;7.446;2022-11-21T00:03:05;23.48;;;11.23;;
68072;SDS011;54862;51.502;7.446;2022-11-21T00:05:31;25.02;;;12.05;;
68072;SDS011;54862;51.502;7.446;2022-11-21T00:07:57;21.95;;;10.65;;
68072;SDS011;54862;51.502;7.446;2022-11-21T00:10:24;24.50;;;11.48;;
68072;SDS011;54862;51.502;7.446;2022-11-21T00:12:54;20.42;;;11.18;;
68072;SDS011;54862;51.502;7.446;2022-11-21T00:15:20;26.38;;;12.13;;
68072;SDS011;54862;51.502;7.446;2022-11-21T00:17:46;23.60;;;11.77;;
68072;SDS011;54862;51.502;7.446;2022-11-21T00:20:12;26.45;;;12.45;;
68072;SDS011;54862;51.502;7.446;2022-11-21T00:22:38;22.02;;;11.32;;
68072;SDS011;54862;51.502;7.446;2022-11-21T00:25:04;24.90;;;12.13;;
68072;SDS011;54862;51.502;7.446;2022-11-21T00:27:30;21.35;;;10.10;;
68072;SDS011;54862;51.502;7.446;2022-11-21T00:29:56;22.13;;;10.18;;
68072;SDS011;54862;51.502;7.446;2022-11-21T00:32:22;20.27;;;10.10;;
68072;SDS011;54862;51.502;7.446;2022-11-21T00:34:48;20.25;;;9.38;;
68072;SDS011;54862;51.502;7.446;2022-11-21T00:37:14;21.30;;;10.48;;
68072;SDS011;54862;51.502;7.446;2022-11-21T00:39:40;20.25;;;9.70;;
68072;SDS011;54862;51.502;7.446;2022-11-21T00:42:06;22.83;;;10.60;;
68072;SDS011;54862;51.502;7.446;2022-11-21T00:44:32;21.52;;;9.77;;
68072;SDS011;54862;51.502;7.446;2022-11-21T00:46:58;24.85;;;10.82;;
68072;SDS011;54862;51.502;7.446;2022-11-21T00:49:24;22.27;;;10.65;;
68072;SDS011;54862;51.502;7.446;2022-11-21T00:51:50;24.10;;;10.93;;
68072;SDS011;54862;51.502;7.446;2022-11-21T00:54:16;21.52;;;10.68;;
68072;SDS011;54862;51.502;7.446;2022-11-21T00:56:42;21.70;;;10.02;;
68072;SDS011;54862;51.502;7.446;2022-11-21T00:59:08;22.45;;;9.85;;
68072;SDS011;54862;51.502;7.446;2022-11-21T01:01:34;17.20;;;9.57;;
68072;SDS011;54862;51.502;7.446;2022-11-21T01:04:00;20.05;;;9.35;;
68072;SDS011;54862;51.502;7.446;2022-11-21T01:06:26;21.35;;;9.40;;
68072;SDS011;54862;51.502;7.446;2022-11-21T01:08:52;21.13;;;10.45;;
68072;SDS011;54862;51.502;7.446;2022-11-21T01:11:19;20.90;;;9.98;;
68072;SDS011;54862;51.502;7.446;2022-11-21T01:13:45;17.67;;;9.13;;
68072;SDS011;54862;51.502;7.446;2022-11-21T01:16:12;23.88;;;10.48;;
68072;SDS011;54862;51.502;7.446;2022-11-21T01:18:39;20.15;;;9.93;;
68072;SDS011;54862;51.502;7.446;2022-11-21T01:21:27;18.33;;;9.35;;
68072;SDS011;54862;51.502;7.446;2022-11-21T01:23:51;19.58;;;10.13;;
68072;SDS011;54862;51.502;7.446;2022-11-21T01:26:27;20.33;;;10.20;;
68072;SDS011;54862;51.502;7.446;2022-11-21T01:28:53;19.10;;;9.82;;
68072;SDS011;54862;51.502;7.446;2022-11-21T01:31:21;19.13;;;9.55;;
68072;SDS011;54862;51.502;7.446;2022-11-21T01:33:47;20.88;;;9.85;;
68072;SDS011;54862;51.502;7.446;2022-11-21T01:36:14;22.70;;;9.73;;
68072;SDS011;54862;51.502;7.446;2022-11-21T01:38:42;19.73;;;9.40;;
68072;SDS011;54862;51.502;7.446;2022-11-21T01:41:09;19.80;;;9.65;;
68072;SDS011;54862;51.502;7.446;2022-11-21T01:43:35;19.95;;;10.13;;
68072;SDS011;54862;51.502;7.446;2022-11-21T01:46:09;18.95;;;10.07;;
68072;SDS011;54862;51.502;7.446;2022-11-21T01:48:56;21.95;;;9.75;;
68072;SDS011;54862;51.502;7.446;2022-11-21T01:51:32;20.27;;;10.13;;
68072;SDS011;54862;51.502;7.446;2022-11-21T01:56:36;19.27;;;9.40;;
68072;SDS011;54862;51.502;7.446;2022-11-21T01:59:04;17.52;;;8.45;;
68072;SDS011;54862;51.502;7.446;2022-11-21T02:01:31;18.73;;;9.10;;
68072;SDS011;54862;51.502;7.446;2022-11-21T02:03:58;18.65;;;8.80;;
68072;SDS011;54862;51.502;7.446;2022-11-21T02:06:26;17.48;;;8.15;;
68072;SDS011;54862;51.502;7.446;2022-11-21T02:08:52;16.88;;;7.85;;
68072;SDS011;54862;51.502;7.446;2022-11-21T02:11:39;16.15;;;8.15;;
68072;SDS011;54862;51.502;7.446;2022-11-21T02:14:06;18.40;;;8.38;;
68072;SDS011;54862;51.502;7.446;2022-11-21T02:16:33;17.95;;;8.27;;
68072;SDS011;54862;51.502;7.446;2022-11-21T02:19:00;19.20;;;9.18;;
68072;SDS011;54862;51.502;7.446;2022-11-21T02:24:29;17.60;;;8.63;;
68072;SDS011;54862;51.502;7.446;2022-11-21T02:26:58;16.33;;;8.55;;
68072;SDS011;54862;51.502;7.446;2022-11-21T02:29:24;15.98;;;7.80;;
68072;SDS011;54862;51.502;7.446;2022-11-21T02:31:50;17.52;;;8.57;;
68072;SDS011;54862;51.502;7.446;2022-11-21T02:34:17;15.68;;;8.52;;
68072;SDS011;54862;51.502;7.446;2022-11-21T02:36:44;18.10;;;9.38;;
68072;SDS011;54862;51.502;7.446;2022-11-21T02:39:21;18.45;;;10.05;;
68072;SDS011;54862;51.502;7.446;2022-11-21T02:42:32;15.65;;;8.02;;
68072;SDS011;54862;51.502;7.446;2022-11-21T02:44:39;18.52;;;9.00;;
68072;SDS011;54862;51.502;7.446;2022-11-21T02:47:07;17.98;;;8.38;;
68072;SDS011;54862;51.502;7.446;2022-11-21T02:49:44;16.65;;;7.88;;
68072;SDS011;54862;51.502;7.446;2022-11-21T02:52:14;20.02;;;9.30;;
68072;SDS011;54862;51.502;7.446;2022-11-21T02:54:39;19.00;;;9.35;;
68072;SDS011;54862;51.502;7.446;2022-11-21T02:57:05;20.80;;;10.18;;
68072;SDS011;54862;51.502;7.446;2022-11-21T02:59:31;19.10;;;9.73;;
68072;SDS011;54862;51.502;7.446;2022-11-21T03:01:57;18.13;;;9.55;;
68072;SDS011;54862;51.502;7.446;2022-11-21T03:04:25;20.40;;;9.70;;
68072;SDS011;54862;51.502;7.446;2022-11-21T03:06:51;20.67;;;10.60;;
68072;SDS011;54862;51.502;7.446;2022-11-21T03:09:17;21.80;;;9.80;;
68072;SDS011;54862;51.502;7.446;2022-11-21T03:11:43;20.85;;;10.52;;
68072;SDS011;54862;51.502;7.446;2022-11-21T03:14:09;19.40;;;9.75;;
68072;SDS011;54862;51.502;7.446;2022-11-21T03:16:35;19.90;;;9.57;;
68072;SDS011;54862;51.502;7.446;2022-11-21T03:19:01;19.30;;;9.80;;
68072;SDS011;54862;51.502;7.446;2022-11-21T03:21:27;20.00;;;9.90;;
68072;SDS011;54862;51.502;7.446;2022-11-21T03:23:53;22.55;;;10.90;;
68072;SDS011;54862;51.502;7.446;2022-11-21T03:26:19;22.38;;;11.35;;
68072;SDS011;54862;51.502;7.446;2022-11-21T03:28:45;22.70;;;10.52;;
68072;SDS011;54862;51.502;7.446;2022-11-21T03:31:11;21.33;;;10.30;;
68072;SDS011;54862;51.502;7.446;2022-11-21T03:33:37;22.98;;;10.93;;
68072;SDS011;54862;51.502;7.446;2022-11-21T03:36:03;23.23;;;11.00;;
68072;SDS011;54862;51.502;7.446;2022-11-21T03:38:29;22.65;;;10.32;;
68072;SDS011;54862;51.502;7.446;2022-11-21T03:40:55;21.25;;;10.75;;
68072;SDS011;54862;51.502;7.446;2022-11-21T03:43:21;22.02;;;9.85;;
68072;SDS011;54862;51.502;7.446;2022-11-21T03:45:47;25.88;;;12.15;;
68072;SDS011;54862;51.502;7.446;2022-11-21T03:48:14;22.58;;;11.48;;
68072;SDS011;54862;51.502;7.446;2022-11-21T03:50:43;26.38;;;11.85;;
68072;SDS011;54862;51.502;7.446;2022-11-21T03:53:09;24.35;;;12.07;;
68072;SDS011;54862;51.502;7.446;2022-11-21T03:55:35;25.15;;;11.82;;
68072;SDS011;54862;51.502;7.446;2022-11-21T03:58:01;25.17;;;12.70;;
68072;SDS011;54862;51.502;7.446;2022-11-21T04:00:27;25.55;;;11.55;;
68072;SDS011;54862;51.502;7.446;2022-11-21T04:02:53;24.33;;;11.52;;
68072;SDS011;54862;51.502;7.446;2022-11-21T04:05:19;25.63;;;12.77;;
68072;SDS011;54862;51.502;7.446;2022-11-21T04:07:45;26.13;;;12.30;;
68072;SDS011;54862;51.502;7.446;2022-11-21T04:10:11;26.55;;;12.43;;
68072;SDS011;54862;51.502;7.446;2022-11-21T04:12:37;27.02;;;12.93;;
68072;SDS011;54862;51.502;7.446;2022-11-21T04:15:03;27.50;;;14.18;;
68072;SDS011;54862;51.502;7.446;2022-11-21T04:17:29;28.92;;;12.95;;
68072;SDS011;54862;51.502;7.446;2022-11-21T04:19:55;29.25;;;13.50;;
68072;SDS011;54862;51.502;7.446;2022-11-21T04:22:22;27.13;;;13.43;;
68072;SDS011;54862;51.502;7.446;2022-11-21T04:24:48;29.88;;;12.25;;
68072;SDS011;54862;51.502;7.446;2022-11-21T04:27:13;24.73;;;11.25;;
68072;SDS011;54862;51.502;7.446;2022-11-21T04:29:39;22.77;;;10.65;;
68072;SDS011;54862;51.502;7.446;2022-11-21T04:32:05;23.70;;;12.10;;
68072;SDS011;54862;51.502;7.446;2022-11-21T04:34:31;26.30;;;12.13;;
68072;SDS011;54862;51.502;7.446;2022-11-21T04:36:57;24.73;;;11.93;;
68072;SDS011;54862;51.502;7.446;2022-11-21T04:39:23;23.35;;;11.80;;
68072;SDS011;54862;51.502;7.446;2022-11-21T04:41:49;25.80;;;12.60;;
68072;SDS011;54862;51.502;7.446;2022-11-21T04:44:15;25.60;;;12.05;;
68072;SDS011;54862;51.502;7.446;2022-11-21T04:46:41;29.83;;;12.68;;
68072;SDS011;54862;51.502;7.446;2022-11-21T04:49:07;30.35;;;14.05;;
68072;SDS011;54862;51.502;7.446;2022-11-21T04:51:33;26.88;;;12.88;;
68072;SDS011;54862;51.502;7.446;2022-11-21T04:53:59;30.80;;;13.32;;
68072;SDS011;54862;51.502;7.446;2022-11-21T04:56:25;29.92;;;12.77;;
68072;SDS011;54862;51.502;7.446;2022-11-21T04:58:51;30.60;;;14.10;;
68072;SDS011;54862;51.502;7.446;2022-11-21T05:01:17;29.90;;;13.15;;
68072;SDS011;54862;51.502;7.446;2022-11-21T05:03:43;33.35;;;14.30;;
68072;SDS011;54862;51.502;7.446;2022-11-21T05:06:09;26.27;;;12.25;;
68072;SDS011;54862;51.502;7.446;2022-11-21T05:08:35;27.83;;;12.65;;
68072;SDS011;54862;51.502;7.446;2022-11-21T05:11:01;27.98;;;13.05;;
68072;SDS011;54862;51.502;7.446;2022-11-21T05:13:46;29.52;;;13.13;;
68072;SDS011;54862;51.502;7.446;2022-11-21T05:16:12;25.83;;;11.95;;
68072;SDS011;54862;51.502;7.446;2022-11-21T05:18:38;28.73;;;12.88;;
68072;SDS011;54862;51.502;7.446;2022-11-21T05:21:04;27.83;;;13.88;;
68072;SDS011;54862;51.502;7.446;2022-11-21T05:23:30;28.33;;;12.93;;
68072;SDS011;54862;51.502;7.446;2022-11-21T05:25:56;26.38;;;12.80;;
68072;SDS011;54862;51.502;7.446;2022-11-21T05:28:22;30.02;;;14.75;;
68072;SDS011;54862;51.502;7.446;2022-11-21T05:30:48;29.70;;;13.40;;
68072;SDS011;54862;51.502;7.446;2022-11-21T05:33:14;25.73;;;12.73;;
68072;SDS011;54862;51.502;7.446;2022-11-21T05:35:40;31.52;;;13.90;;
68072;SDS011;54862;51.502;7.446;2022-11-21T05:38:06;31.15;;;13.25;;
68072;SDS011;54862;51.502;7.446;2022-11-21T05:40:32;28.33;;;14.05;;
68072;SDS011;54862;51.502;7.446;2022-11-21T05:42:58;33.20;;;15.13;;
68072;SDS011;54862;51.502;7.446;2022-11-21T05:45:42;32.55;;;13.77;;
68072;SDS011;54862;51.502;7.446;2022-11-21T05:48:08;32.60;;;14.60;;
68072;SDS011;54862;51.502;7.446;2022-11-21T05:50:34;30.55;;;14.00;;
68072;SDS011;54862;51.502;7.446;2022-11-21T05:53:01;31.60;;;13.93;;
68072;SDS011;54862;51.502;7.446;2022-11-21T05:55:28;29.95;;;12.57;;
68072;SDS011;54862;51.502;7.446;2022-11-21T05:57:58;34.20;;;14.13;;
68072;SDS011;54862;51.502;7.446;2022-11-21T06:00:25;29.10;;;13.18;;
68072;SDS011;54862;51.502;7.446;2022-11-21T06:02:51;31.13;;;13.60;;
68072;SDS011;54862;51.502;7.446;2022-11-21T06:05:35;30.52;;;13.70;;
68072;SDS011;54862;51.502;7.446;2022-11-21T06:08:01;34.70;;;14.27;;
68072;SDS011;54862;51.502;7.446;2022-11-21T06:10:27;33.25;;;14.30;;
68072;SDS011;54862;51.502;7.446;2022-11-21T06:12:53;30.88;;;14.27;;
68072;SDS011;54862;51.502;7.446;2022-11-21T06:15:19;32.45;;;14.30;;
68072;SDS011;54862;51.502;7.446;2022-11-21T06:17:45;32.67;;;14.02;;
68072;SDS011;54862;51.502;7.446;2022-11-21T06:20:11;32.97;;;13.68;;
68072;SDS011;54862;51.502;7.446;2022-11-21T06:22:37;28.42;;;13.25;;
68072;SDS011;54862;51.502;7.446;2022-11-21T06:25:03;30.45;;;13.23;;
68072;SDS011;54862;51.502;7.446;2022-11-21T06:27:29;35.70;;;13.48;;
68072;SDS011;54862;51.502;7.446;2022-11-21T06:29:55;31.25;;;14.50;;
68072;SDS011;54862;51.502;7.446;2022-11-21T06:32:21;26.33;;;13.07;;
68072;SDS011;54862;51.502;7.446;2022-11-21T06:34:47;32.15;;;13.40;;
68072;SDS011;54862;51.502;7.446;2022-11-21T06:37:13;29.67;;;12.93;;
68072;SDS011;54862;51.502;7.446;2022-11-21T06:39:39;31.83;;;12.63;;
68072;SDS011;54862;51.502;7.446;2022-11-21T06:42:05;30.65;;;12.73;;
68072;SDS011;54862;51.502;7.446;2022-11-21T06:44:31;30.52;;;12.55;;
68072;SDS011;54862;51.502;7.446;2022-11-21T06:46:57;33.92;;;13.20;;
68072;SDS011;54862;51.502;7.446;2022-11-21T06:49:23;28.52;;;12.75;;
68072;SDS011;54862;51.502;7.446;2022-11-21T06:51:49;29.90;;;12.25;;
68072;SDS011;54862;51.502;7.446;2022-11-21T06:54:15;28.48;;;12.43;;
68072;SDS011;54862;51.502;7.446;2022-11-21T06:56:41;32.05;;;12.32;;
68072;SDS011;54862;51.502;7.446;2022-11-21T06:59:07;30.10;;;12.30;;
68072;SDS011;54862;51.502;7.446;2022-11-21T07:01:33;26.95;;;11.73;;
68072;SDS011;54862;51.502;7.446;2022-11-21T07:03:59;30.63;;;12.75;;
68072;SDS011;54862;51.502;7.446;2022-11-21T07:06:25;30.23;;;12.27;;
68072;SDS011;54862;51.502;7.446;2022-11-21T07:08:54;28.98;;;13.27;;
68072;SDS011;54862;51.502;7.446;2022-11-21T07:11:20;28.50;;;12.63;;
68072;SDS011;54862;51.502;7.446;2022-11-21T07:13:46;30.92;;;12.32;;
68072;SDS011;54862;51.502;7.446;2022-11-21T07:16:12;30.27;;;12.07;;
68072;SDS011;54862;51.502;7.446;2022-11-21T07:18:38;29.65;;;12.32;;
68072;SDS011;54862;51.502;7.446;2022-11-21T07:21:05;30.85;;;13.00;;
68072;SDS011;54862;51.502;7.446;2022-11-21T07:23:32;29.98;;;12.35;;
68072;SDS011;54862;51.502;7.446;2022-11-21T07:25:58;33.47;;;14.30;;
68072;SDS011;54862;51.502;7.446;2022-11-21T07:28:26;36.42;;;13.98;;
68072;SDS011;54862;51.502;7.446;2022-11-21T07:30:54;32.03;;;14.45;;
68072;SDS011;54862;51.502;7.446;2022-11-21T07:33:20;33.38;;;13.40;;
68072;SDS011;54862;51.502;7.446;2022-11-21T07:35:46;30.65;;;12.52;;
68072;SDS011;54862;51.502;7.446;2022-11-21T07:38:12;32.97;;;12.85;;
68072;SDS011;54862;51.502;7.446;2022-11-21T07:40:38;29.33;;;12.50;;
68072;SDS011;54862;51.502;7.446;2022-11-21T07:43:04;29.05;;;12.07;;
68072;SDS011;54862;51.502;7.446;2022-11-21T07:45:31;34.65;;;13.50;;
68072;SDS011;54862;51.502;7.446;2022-11-21T07:47:57;29.45;;;12.57;;
68072;SDS011;54862;51.502;7.446;2022-11-21T07:50:23;27.80;;;11.85;;
68072;SDS011;54862;51.502;7.446;2022-11-21T07:52:49;30.23;;;12.70;;
68072;SDS011;54862;51.502;7.446;2022-11-21T07:55:15;32.72;;;12.18;;
68072;SDS011;54862;51.502;7.446;2022-11-21T07:57:41;27.50;;;12.05;;
68072;SDS011;54862;51.502;7.446;2022-11-21T08:00:07;27.92;;;12.43;;
68072;SDS011;54862;51.502;7.446;2022-11-21T08:02:34;30.83;;;12.98;;
68072;SDS011;54862;51.502;7.446;2022-11-21T08:05:00;31.05;;;12.32;;
68072;SDS011;54862;51.502;7.446;2022-11-21T08:07:26;27.58;;;11.90;;
68072;SDS011;54862;51.502;7.446;2022-11-21T08:09:51;32.60;;;11.82;;
68072;SDS011;54862;51.502;7.446;2022-11-21T08:12:17;33.45;;;12.57;;
68072;SDS011;54862;51.502;7.446;2022-11-21T08:14:43;30.15;;;13.15;;
68072;SDS011;54862;51.502;7.446;2022-11-21T08:17:09;28.45;;;13.43;;
68072;SDS011;54862;51.502;7.446;2022-11-21T08:19:35;33.08;;;13.32;;
68072;SDS011;54862;51.502;7.446;2022-11-21T08:22:01;32.33;;;12.20;;
68072;SDS011;54862;51.502;7.446;2022-11-21T08:24:27;31.02;;;13.32;;
68072;SDS011;54862;51.502;7.446;2022-11-21T08:26:53;34.47;;;14.15;;
68072;SDS011;54862;51.502;7.446;2022-11-21T08:29:19;33.58;;;13.52;;
68072;SDS011;54862;51.502;7.446;2022-11-21T08:31:45;31.02;;;12.85;;
68072;SDS011;54862;51.502;7.446;2022-11-21T08:34:11;30.95;;;13.15;;
68072;SDS011;54862;51.502;7.446;2022-11-21T08:36:37;35.33;;;13.88;;
68072;SDS011;54862;51.502;7.446;2022-11-21T08:39:03;32.67;;;16.00;;
68072;SDS011;54862;51.502;7.446;2022-11-21T08:41:29;35.95;;;15.05;;
68072;SDS011;54862;51.502;7.446;2022-11-21T08:44:14;34.78;;;15.15;;
68072;SDS011;54862;51.502;7.446;2022-11-21T08:46:40;34.85;;;14.50;;
68072;SDS011;54862;51.502;7.446;2022-11-21T08:49:06;32.58;;;12.55;;
68072;SDS011;54862;51.502;7.446;2022-11-21T08:51:33;34.70;;;14.27;;
68072;SDS011;54862;51.502;7.446;2022-11-21T08:53:59;30.58;;;14.02;;
68072;SDS011;54862;51.502;7.446;2022-11-21T08:56:25;33.22;;;13.52;;
68072;SDS011;54862;51.502;7.446;2022-11-21T08:58:51;29.60;;;13.18;;
68072;SDS011;54862;51.502;7.446;2022-11-21T09:01:17;31.02;;;11.82;;
68072;SDS011;54862;51.502;7.446;2022-11-21T09:03:43;35.95;;;13.68;;
68072;SDS011;54862;51.502;7.446;2022-11-21T09:06:09;33.75;;;15.05;;
68072;SDS011;54862;51.502;7.446;2022-11-21T09:08:36;34.55;;;14.73;;
68072;SDS011;54862;51.502;7.446;2022-11-21T09:11:05;35.85;;;14.43;;
68072;SDS011;54862;51.502;7.446;2022-11-21T09:13:32;28.50;;;12.63;;
68072;SDS011;54862;51.502;7.446;2022-11-21T09:15:58;33.72;;;14.02;;
68072;SDS011;54862;51.502;7.446;2022-11-21T09:18:43;31.50;;;13.30;;
68072;SDS011;54862;51.502;7.446;2022-11-21T09:21:15;28.40;;;12.45;;
68072;SDS011;54862;51.502;7.446;2022-11-21T09:23:42;29.95;;;13.77;;
68072;SDS011;54862;51.502;7.446;2022-11-21T09:26:08;36.08;;;13.95;;
68072;SDS011;54862;51.502;7.446;2022-11-21T09:28:34;39.50;;;13.60;;
68072;SDS011;54862;51.502;7.446;2022-11-21T09:31:01;34.75;;;13.10;;
68072;SDS011;54862;51.502;7.446;2022-11-21T09:33:27;32.10;;;12.98;;
68072;SDS011;54862;51.502;7.446;2022-11-21T09:35:52;37.40;;;15.05;;
68072;SDS011;54862;51.502;7.446;2022-11-21T09:38:18;35.60;;;13.90;;
68072;SDS011;54862;51.502;7.446;2022-11-21T09:40:45;33.60;;;14.02;;
68072;SDS011;54862;51.502;7.446;2022-11-21T09:45:47;30.45;;;13.30;;
68072;SDS011;54862;51.502;7.446;2022-11-21T09:48:25;35.45;;;13.35;;
68072;SDS011;54862;51.502;7.446;2022-11-21T09:50:53;36.60;;;14.35;;
68072;SDS011;54862;51.502;7.446;2022-11-21T09:53:22;31.73;;;14.05;;
68072;SDS011;54862;51.502;7.446;2022-11-21T09:55:50;43.15;;;14.88;;
68072;SDS011;54862;51.502;7.446;2022-11-21T09:58:27;39.80;;;15.00;;
68072;SDS011;54862;51.502;7.446;2022-11-21T10:00:54;42.22;;;14.80;;
68072;SDS011;54862;51.502;7.446;2022-11-21T10:03:21;39.70;;;13.93;;
68072;SDS011;54862;51.502;7.446;2022-11-21T10:08:40;40.00;;;14.30;;
68072;SDS011;54862;51.502;7.446;2022-11-21T10:13:48;35.50;;;14.57;;
68072;SDS011;54862;51.502;7.446;2022-11-21T10:19:22;41.33;;;14.38;;
68072;SDS011;54862;51.502;7.446;2022-11-21T10:29:55;42.22;;;14.70;;
68072;SDS011;54862;51.502;7.446;2022-11-21T10:32:29;37.70;;;14.82;;
68072;SDS011;54862;51.502;7.446;2022-11-21T10:35:00;36.45;;;14.55;;
68072;SDS011;54862;51.502;7.446;2022-11-21T10:37:36;39.25;;;14.75;;
68072;SDS011;54862;51.502;7.446;2022-11-21T10:40:06;36.95;;;14.52;;
68072;SDS011;54862;51.502;7.446;2022-11-21T10:42:39;42.20;;;15.68;;
68072;SDS011;54862;51.502;7.446;2022-11-21T10:45:07;42.63;;;14.65;;
68072;SDS011;54862;51.502;7.446;2022-11-21T10:47:47;41.75;;;14.88;;
68072;SDS011;54862;51.502;7.446;2022-11-21T10:55:23;44.80;;;16.58;;
68072;SDS011;54862;51.502;7.446;2022-11-21T10:57:49;37.47;;;16.08;;
68072;SDS011;54862;51.502;7.446;2022-11-21T11:00:23;43.55;;;16.63;;
68072;SDS011;54862;51.502;7.446;2022-11-21T11:07:41;46.60;;;15.82;;
68072;SDS011;54862;51.502;7.446;2022-11-21T11:10:17;46.35;;;17.02;;
68072;SDS011;54862;51.502;7.446;2022-11-21T11:12:47;44.17;;;16.40;;
68072;SDS011;54862;51.502;7.446;2022-11-21T11:15:32;41.83;;;17.13;;
68072;SDS011;54862;51.502;7.446;2022-11-21T11:17:59;43.55;;;15.50;;
68072;SDS011;54862;51.502;7.446;2022-11-21T11:20:38;41.35;;;15.30;;
68072;SDS011;54862;51.502;7.446;2022-11-21T11:25:47;44.17;;;16.30;;
68072;SDS011;54862;51.502;7.446;2022-11-21T11:28:14;39.78;;;16.33;;
68072;SDS011;54862;51.502;7.446;2022-11-21T11:30:40;42.88;;;16.15;;
68072;SDS011;54862;51.502;7.446;2022-11-21T11:35:51;34.22;;;15.77;;
68072;SDS011;54862;51.502;7.446;2022-11-21T11:38:17;33.75;;;16.17;;
68072;SDS011;54862;51.502;7.446;2022-11-21T11:40:45;40.97;;;16.17;;
68072;SDS011;54862;51.502;7.446;2022-11-21T11:49:08;68.07;;;29.40;;
68072;SDS011;54862;51.502;7.446;2022-11-21T11:52:08;58.28;;;25.10;;
68072;SDS011;54862;51.502;7.446;2022-11-21T11:54:49;54.50;;;24.67;;
68072;SDS011;54862;51.502;7.446;2022-11-21T11:57:16;50.63;;;22.70;;
68072;SDS011;54862;51.502;7.446;2022-11-21T11:59:49;52.70;;;23.02;;
68072;SDS011;54862;51.502;7.446;2022-11-21T12:02:22;39.65;;;18.23;;
68072;SDS011;54862;51.502;7.446;2022-11-21T12:05:01;39.33;;;16.58;;
68072;SDS011;54862;51.502;7.446;2022-11-21T12:07:30;43.47;;;17.75;;
68072;SDS011;54862;51.502;7.446;2022-11-21T12:10:03;43.45;;;17.52;;
68072;SDS011;54862;51.502;7.446;2022-11-21T12:12:53;38.35;;;15.15;;
68072;SDS011;54862;51.502;7.446;2022-11-21T12:15:21;35.58;;;14.93;;
68072;SDS011;54862;51.502;7.446;2022-11-21T12:23:11;31.95;;;14.32;;
68072;SDS011;54862;51.502;7.446;2022-11-21T12:25:45;29.77;;;13.63;;
68072;SDS011;54862;51.502;7.446;2022-11-21T12:28:22;28.83;;;12.88;;
68072;SDS011;54862;51.502;7.446;2022-11-21T12:30:54;27.42;;;12.40;;
68072;SDS011;54862;51.502;7.446;2022-11-21T12:33:23;26.50;;;12.43;;
68072;SDS011;54862;51.502;7.446;2022-11-21T12:41:18;25.15;;;12.48;;
68072;SDS011;54862;51.502;7.446;2022-11-21T12:46:35;27.75;;;11.90;;
68072;SDS011;54862;51.502;7.446;2022-11-21T12:55:34;25.67;;;11.65;;
68072;SDS011;54862;51.502;7.446;2022-11-21T13:05:24;25.23;;;10.98;;
68072;SDS011;54862;51.502;7.446;2022-11-21T13:07:53;22.25;;;10.77;;
68072;SDS011;54862;51.502;7.446;2022-11-21T13:10:20;27.33;;;11.13;;
68072;SDS011;54862;51.502;7.446;2022-11-21T13:12:47;21.67;;;10.95;;
68072;SDS011;54862;51.502;7.446;2022-11-21T13:15:25;26.00;;;11.45;;
68072;SDS011;54862;51.502;7.446;2022-11-21T13:17:54;23.10;;;10.95;;
68072;SDS011;54862;51.502;7.446;2022-11-21T13:20:22;21.80;;;10.43;;
68072;SDS011;54862;51.502;7.446;2022-11-21T13:22:50;23.67;;;10.57;;
68072;SDS011;54862;51.502;7.446;2022-11-21T13:27:54;21.90;;;10.93;;
68072;SDS011;54862;51.502;7.446;2022-11-21T13:36:07;18.45;;;9.23;;
68072;SDS011;54862;51.502;7.446;2022-11-21T13:49:22;21.55;;;9.68;;
68072;SDS011;54862;51.502;7.446;2022-11-21T13:51:51;20.90;;;9.00;;
68072;SDS011;54862;51.502;7.446;2022-11-21T13:56:57;20.02;;;9.48;;
68072;SDS011;54862;51.502;7.446;2022-11-21T13:59:28;19.20;;;9.13;;
68072;SDS011;54862;51.502;7.446;2022-11-21T14:07:54;19.58;;;8.75;;
68072;SDS011;54862;51.502;7.446;2022-11-21T14:10:03;16.85;;;8.95;;
68072;SDS011;54862;51.502;7.446;2022-11-21T14:12:37;15.98;;;8.70;;
68072;SDS011;54862;51.502;7.446;2022-11-21T14:19:57;14.75;;;8.52;;
68072;SDS011;54862;51.502;7.446;2022-11-21T14:22:25;16.30;;;8.52;;
68072;SDS011;54862;51.502;7.446;2022-11-21T14:24:52;18.67;;;8.50;;
68072;SDS011;54862;51.502;7.446;2022-11-21T14:27:29;16.25;;;8.02;;
68072;SDS011;54862;51.502;7.446;2022-11-21T14:29:56;16.95;;;8.73;;
68072;SDS011;54862;51.502;7.446;2022-11-21T14:32:28;17.02;;;8.23;;
68072;SDS011;54862;51.502;7.446;2022-11-21T14:35:10;16.73;;;8.17;;
68072;SDS011;54862;51.502;7.446;2022-11-21T14:37:43;23.48;;;8.88;;
68072;SDS011;54862;51.502;7.446;2022-11-21T14:40:10;15.63;;;8.38;;
68072;SDS011;54862;51.502;7.446;2022-11-21T14:42:37;18.52;;;9.18;;
68072;SDS011;54862;51.502;7.446;2022-11-21T14:45:21;19.42;;;8.45;;
68072;SDS011;54862;51.502;7.446;2022-11-21T14:47:48;19.10;;;8.02;;
68072;SDS011;54862;51.502;7.446;2022-11-21T14:50:27;16.05;;;8.60;;
68072;SDS011;54862;51.502;7.446;2022-11-21T14:52:54;21.23;;;8.35;;
68072;SDS011;54862;51.502;7.446;2022-11-21T14:55:24;15.75;;;8.10;;
68072;SDS011;54862;51.502;7.446;2022-11-21T14:57:51;16.98;;;8.40;;
68072;SDS011;54862;51.502;7.446;2022-11-21T15:00:18;14.45;;;8.48;;
68072;SDS011;54862;51.502;7.446;2022-11-21T15:02:45;15.38;;;7.72;;
68072;SDS011;54862;51.502;7.446;2022-11-21T15:05:12;14.70;;;7.60;;
68072;SDS011;54862;51.502;7.446;2022-11-21T15:07:42;14.60;;;7.57;;
68072;SDS011;54862;51.502;7.446;2022-11-21T15:10:16;16.13;;;7.75;;
68072;SDS011;54862;51.502;7.446;2022-11-21T15:17:41;14.93;;;7.82;;
68072;SDS011;54862;51.502;7.446;2022-11-21T15:22:37;11.65;;;6.80;;
68072;SDS011;54862;51.502;7.446;2022-11-21T15:27:32;14.77;;;6.43;;
68072;SDS011;54862;51.502;7.446;2022-11-21T15:32:28;11.80;;;6.50;;
68072;SDS011;54862;51.502;7.446;2022-11-21T15:34:53;16.55;;;5.90;;
68072;SDS011;54862;51.502;7.446;2022-11-21T15:37:20;14.45;;;6.05;;
68072;SDS011;54862;51.502;7.446;2022-11-21T15:39:48;11.18;;;5.68;;
68072;SDS011;54862;51.502;7.446;2022-11-21T15:45:17;10.80;;;5.60;;
68072;SDS011;54862;51.502;7.446;2022-11-21T15:47:45;13.85;;;6.13;;
68072;SDS011;54862;51.502;7.446;2022-11-21T15:50:11;10.25;;;5.20;;
68072;SDS011;54862;51.502;7.446;2022-11-21T15:52:44;11.07;;;5.68;;
68072;SDS011;54862;51.502;7.446;2022-11-21T15:57:36;9.63;;;4.85;;
68072;SDS011;54862;51.502;7.446;2022-11-21T16:00:02;13.07;;;5.40;;
68072;SDS011;54862;51.502;7.446;2022-11-21T16:02:28;9.98;;;4.68;;
68072;SDS011;54862;51.502;7.446;2022-11-21T16:04:54;10.60;;;4.90;;
68072;SDS011;54862;51.502;7.446;2022-11-21T16:07:20;11.90;;;5.35;;
68072;SDS011;54862;51.502;7.446;2022-11-21T16:09:46;9.50;;;5.03;;
68072;SDS011;54862;51.502;7.446;2022-11-21T16:12:14;10.43;;;4.57;;
68072;SDS011;54862;51.502;7.446;2022-11-21T16:14:41;11.27;;;4.85;;
68072;SDS011;54862;51.502;7.446;2022-11-21T16:17:07;11.02;;;5.43;;
68072;SDS011;54862;51.502;7.446;2022-11-21T16:19:33;13.30;;;5.68;;
68072;SDS011;54862;51.502;7.446;2022-11-21T16:21:59;11.07;;;6.10;;
68072;SDS011;54862;51.502;7.446;2022-11-21T16:24:25;13.55;;;5.97;;
68072;SDS011;54862;51.502;7.446;2022-11-21T16:26:51;14.43;;;6.28;;
68072;SDS011;54862;51.502;7.446;2022-11-21T16:29:19;11.55;;;6.00;;
68072;SDS011;54862;51.502;7.446;2022-11-21T16:31:46;11.02;;;5.75;;
68072;SDS011;54862;51.502;7.446;2022-11-21T16:34:17;10.90;;;5.78;;